createdAt,value
2023-03-17T00:00:15.961Z,9.68
2023-03-17T00:02:43.683Z,6.78
2023-03-17T00:05:31.160Z,6.22
2023-03-17T00:08:01.223Z,7.55
2023-03-17T00:10:29.032Z,6.20
2023-03-17T00:12:56.469Z,9.15
2023-03-17T00:15:24.656Z,6.18
2023-03-17T00:17:51.765Z,7.07
2023-03-17T00:20:23.784Z,7.20
2023-03-17T00:22:51.141Z,6.32
2023-03-17T00:25:29.232Z,6.50
2023-03-17T00:27:58.263Z,8.93
2023-03-17T00:30:27.173Z,9.18
2023-03-17T00:32:58.709Z,7.60
2023-03-17T00:35:29.898Z,8.23
2023-03-17T00:37:58.356Z,8.43
2023-03-17T00:40:30.820Z,8.35
2023-03-17T00:42:59.976Z,9.02
2023-03-17T00:45:28.075Z,7.22
2023-03-17T00:47:56.190Z,6.18
2023-03-17T00:50:25.438Z,6.57
2023-03-17T00:52:54.309Z,6.38
2023-03-17T00:55:22.316Z,6.47
2023-03-17T00:57:49.993Z,5.45
2023-03-17T01:00:25.424Z,7.82
2023-03-17T01:02:56.496Z,5.70
2023-03-17T01:05:24.714Z,7.07
2023-03-17T01:07:53.944Z,8.20
2023-03-17T01:10:26.549Z,7.43
2023-03-17T01:12:54.708Z,7.95
2023-03-17T01:15:22.668Z,8.00
2023-03-17T01:17:50.703Z,8.90
2023-03-17T01:20:25.423Z,5.38
2023-03-17T01:22:52.644Z,7.03
2023-03-17T01:25:20.099Z,7.75
2023-03-17T01:27:47.799Z,6.82
2023-03-17T01:30:15.843Z,6.15
2023-03-17T01:32:43.642Z,10.10
2023-03-17T01:35:11.522Z,7.53
2023-03-17T01:37:38.727Z,7.63
2023-03-17T01:40:09.708Z,6.65
2023-03-17T01:42:37.165Z,6.15
2023-03-17T01:45:07.150Z,7.80
2023-03-17T01:47:34.613Z,5.55
2023-03-17T01:50:06.221Z,6.95
2023-03-17T01:52:34.379Z,7.75
2023-03-17T01:55:04.463Z,9.02
2023-03-17T01:57:38.079Z,5.18
2023-03-17T02:00:08.060Z,6.75
2023-03-17T02:02:37.712Z,6.47
2023-03-17T02:05:06.441Z,6.07
2023-03-17T02:07:34.888Z,12.63
2023-03-17T02:10:04.002Z,5.43
2023-03-17T02:12:31.319Z,7.35
2023-03-17T02:14:58.652Z,6.80
2023-03-17T02:17:27.231Z,7.15
2023-03-17T02:19:54.995Z,6.18
2023-03-17T02:22:22.606Z,8.60
2023-03-17T02:24:53.079Z,8.07
2023-03-17T02:27:23.051Z,6.32
2023-03-17T02:29:50.856Z,9.80
2023-03-17T02:32:19.264Z,6.38
2023-03-17T02:34:47.617Z,7.30
2023-03-17T02:37:15.970Z,7.07
2023-03-17T02:39:43.091Z,7.80
2023-03-17T02:42:10.685Z,6.07
2023-03-17T02:44:38.304Z,6.65
2023-03-17T02:47:07.389Z,5.43
2023-03-17T02:49:35.395Z,6.75
2023-03-17T02:52:02.652Z,6.75
2023-03-17T02:54:29.797Z,5.78
2023-03-17T02:56:56.938Z,6.25
2023-03-17T02:59:24.127Z,7.88
2023-03-17T03:01:51.295Z,7.97
2023-03-17T03:04:19.209Z,6.80
2023-03-17T03:06:47.657Z,6.53
2023-03-17T03:09:15.457Z,6.32
2023-03-17T03:11:42.973Z,5.60
2023-03-17T03:14:10.375Z,9.73
2023-03-17T03:16:38.597Z,7.25
2023-03-17T03:19:05.967Z,6.88
2023-03-17T03:21:33.322Z,7.32
2023-03-17T03:24:00.718Z,9.13
2023-03-17T03:26:29.302Z,5.47
2023-03-17T03:28:58.465Z,5.95
2023-03-17T03:31:26.161Z,5.50
2023-03-17T03:33:53.562Z,7.50
2023-03-17T03:36:20.830Z,6.13
2023-03-17T03:38:47.983Z,4.78
2023-03-17T03:41:15.127Z,8.27
2023-03-17T03:43:42.322Z,6.55
2023-03-17T03:46:09.485Z,5.13
2023-03-17T03:48:36.921Z,5.55
2023-03-17T03:51:04.149Z,6.40
2023-03-17T03:53:31.695Z,6.32
2023-03-17T03:55:58.898Z,5.68
2023-03-17T03:58:26.048Z,5.93
2023-03-17T04:00:53.208Z,6.03
2023-03-17T04:03:20.667Z,6.00
2023-03-17T04:05:47.845Z,6.88
2023-03-17T04:08:15.040Z,6.88
2023-03-17T04:10:42.757Z,5.53
2023-03-17T04:13:09.922Z,7.45
2023-03-17T04:15:37.804Z,5.40
2023-03-17T04:18:05.345Z,7.88
2023-03-17T04:20:33.072Z,6.35
2023-03-17T04:23:00.530Z,7.55
2023-03-17T04:25:27.832Z,5.85
2023-03-17T04:27:55.068Z,6.90
2023-03-17T04:30:22.175Z,8.45
2023-03-17T04:32:49.481Z,6.03
2023-03-17T04:35:18.340Z,5.63
2023-03-17T04:37:45.921Z,6.40
2023-03-17T04:40:14.008Z,7.80
2023-03-17T04:42:41.600Z,5.30
2023-03-17T04:45:09.792Z,5.07
2023-03-17T04:47:37.328Z,5.28
2023-03-17T04:50:05.381Z,6.05
2023-03-17T04:52:32.567Z,4.95
2023-03-17T04:54:59.816Z,8.65
2023-03-17T04:57:27.318Z,8.15
2023-03-17T04:59:54.501Z,8.60
2023-03-17T05:02:21.647Z,5.97
2023-03-17T05:04:48.976Z,8.55
2023-03-17T05:07:16.128Z,8.77
2023-03-17T05:09:43.260Z,7.65
2023-03-17T05:12:11.601Z,9.55
2023-03-17T05:14:38.862Z,9.32
2023-03-17T05:17:06.288Z,9.10
2023-03-17T05:19:33.491Z,8.40
2023-03-17T05:22:00.631Z,9.13
2023-03-17T05:24:27.787Z,8.90
2023-03-17T05:26:54.918Z,9.88
2023-03-17T05:29:22.059Z,8.52
2023-03-17T05:31:49.195Z,13.63
2023-03-17T05:34:17.454Z,7.40
2023-03-17T05:36:44.762Z,8.15
2023-03-17T05:39:14.452Z,9.50
2023-03-17T05:41:42.324Z,6.88
2023-03-17T05:44:10.406Z,6.07
2023-03-17T05:46:37.692Z,7.72
2023-03-17T05:49:04.966Z,7.22
2023-03-17T05:51:32.112Z,6.72
2023-03-17T05:53:59.293Z,6.05
2023-03-17T05:56:33.318Z,7.55
2023-03-17T05:59:03.520Z,8.50
2023-03-17T06:01:31.428Z,9.27
2023-03-17T06:03:58.614Z,8.30
2023-03-17T06:06:25.824Z,7.40
2023-03-17T06:08:52.986Z,8.32
2023-03-17T06:11:21.560Z,5.20
2023-03-17T06:13:48.786Z,5.25
2023-03-17T06:16:16.607Z,9.77
2023-03-17T06:18:44.605Z,6.57
2023-03-17T06:21:11.889Z,6.85
2023-03-17T06:23:39.137Z,6.03
2023-03-17T06:26:07.134Z,9.90
2023-03-17T06:28:34.318Z,6.40
2023-03-17T06:31:01.619Z,10.70
2023-03-17T06:33:28.883Z,5.55
2023-03-17T06:35:58.589Z,5.18
2023-03-17T06:38:25.764Z,5.57
2023-03-17T06:40:53.130Z,6.50
2023-03-17T06:43:22.113Z,4.40
2023-03-17T06:45:50.437Z,5.05
2023-03-17T06:48:17.894Z,8.57
2023-03-17T06:50:47.461Z,6.95
2023-03-17T06:53:14.627Z,4.57
2023-03-17T06:55:42.137Z,6.28
2023-03-17T06:58:10.548Z,6.70
2023-03-17T07:00:41.262Z,4.70
2023-03-17T07:03:09.952Z,8.68
2023-03-17T07:05:38.117Z,6.63
2023-03-17T07:08:05.239Z,11.32
2023-03-17T07:10:33.290Z,5.93
2023-03-17T07:13:00.484Z,4.35
2023-03-17T07:15:27.643Z,5.20
2023-03-17T07:17:54.774Z,3.55
2023-03-17T07:20:22.028Z,3.67
2023-03-17T07:22:49.184Z,3.65
2023-03-17T07:25:16.380Z,3.90
2023-03-17T07:27:43.538Z,3.35
2023-03-17T07:30:11.053Z,4.78
2023-03-17T07:32:38.220Z,5.20
2023-03-17T07:35:05.698Z,4.97
2023-03-17T07:37:32.890Z,5.60
2023-03-17T07:40:00.018Z,3.30
2023-03-17T07:42:29.128Z,5.18
2023-03-17T07:44:56.629Z,4.97
2023-03-17T07:47:23.905Z,4.35
2023-03-17T07:49:51.089Z,4.63
2023-03-17T07:52:18.268Z,2.80
2023-03-17T07:54:45.672Z,3.03
2023-03-17T07:57:13.274Z,4.90
2023-03-17T07:59:41.645Z,4.50
2023-03-17T08:02:12.008Z,3.75
2023-03-17T08:04:39.306Z,3.92
2023-03-17T08:07:06.480Z,3.47
2023-03-17T08:09:33.687Z,3.65
2023-03-17T08:12:01.183Z,3.95
2023-03-17T08:14:28.328Z,3.65
2023-03-17T08:16:55.857Z,4.00
2023-03-17T08:19:24.249Z,5.60
2023-03-17T08:21:51.511Z,2.60
2023-03-17T08:24:18.654Z,3.25
2023-03-17T08:26:49.196Z,4.68
2023-03-17T08:29:16.558Z,2.80
2023-03-17T08:31:46.427Z,2.97
2023-03-17T08:34:14.056Z,3.67
2023-03-17T08:36:41.474Z,4.32
2023-03-17T08:39:10.499Z,3.08
2023-03-17T08:41:38.415Z,4.70
2023-03-17T08:44:05.653Z,3.22
2023-03-17T08:46:33.363Z,2.80
2023-03-17T08:49:00.959Z,5.32
2023-03-17T08:51:30.275Z,4.28
2023-03-17T08:53:57.693Z,3.67
2023-03-17T08:56:24.881Z,3.97
2023-03-17T08:58:52.089Z,3.95
2023-03-17T09:01:21.181Z,4.40
2023-03-17T09:03:49.570Z,5.07
2023-03-17T09:06:16.879Z,3.38
2023-03-17T09:08:45.163Z,7.35
2023-03-17T09:11:14.096Z,4.57
2023-03-17T09:13:41.535Z,3.30
2023-03-17T09:16:11.843Z,4.40
2023-03-17T09:18:39.136Z,6.97
2023-03-17T09:21:06.501Z,5.25
2023-03-17T09:23:33.800Z,3.15
2023-03-17T09:26:02.254Z,3.55
2023-03-17T09:28:29.460Z,3.40
2023-03-17T09:31:01.308Z,5.10
2023-03-17T09:33:28.826Z,4.70
2023-03-17T09:35:59.210Z,3.47
2023-03-17T09:38:27.613Z,5.53
2023-03-17T09:40:59.468Z,4.10
2023-03-17T09:43:32.693Z,2.33
2023-03-17T09:46:05.788Z,3.30
2023-03-17T09:48:52.655Z,5.95
2023-03-17T09:51:20.232Z,4.35
2023-03-17T09:53:55.179Z,3.50
2023-03-17T09:56:23.232Z,2.15
2023-03-17T09:58:53.524Z,4.95
2023-03-17T10:01:20.956Z,2.95
2023-03-17T10:03:51.528Z,3.30
2023-03-17T10:06:24.779Z,3.25
2023-03-17T10:08:56.464Z,5.10
2023-03-17T10:11:42.684Z,2.05
2023-03-17T10:14:23.504Z,8.23
2023-03-17T10:16:54.741Z,2.42
2023-03-17T10:19:27.832Z,1.90
2023-03-17T10:21:59.015Z,3.00
2023-03-17T10:24:28.542Z,2.58
2023-03-17T10:26:57.954Z,1.75
2023-03-17T10:29:25.372Z,4.38
2023-03-17T10:31:56.263Z,3.50
2023-03-17T10:34:25.547Z,9.63
2023-03-17T10:36:56.915Z,37.65
2023-03-17T10:39:24.904Z,4.63
2023-03-17T10:42:00.413Z,36.38
2023-03-17T10:44:42.054Z,3.58
2023-03-17T10:47:21.109Z,4.82
2023-03-17T10:49:48.308Z,3.72
2023-03-17T10:52:27.888Z,5.95
2023-03-17T10:54:55.363Z,2.90
2023-03-17T10:57:22.944Z,4.07
2023-03-17T10:59:53.421Z,1.65
2023-03-17T11:02:23.881Z,3.30
2023-03-17T11:04:54.523Z,3.55
2023-03-17T11:07:27.663Z,2.35
2023-03-17T11:09:58.363Z,1.75
2023-03-17T11:12:45.902Z,2.45
2023-03-17T11:15:17.802Z,2.92
2023-03-17T11:17:51.185Z,4.20
2023-03-17T11:20:37.205Z,6.20
2023-03-17T11:23:23.667Z,2.92
2023-03-17T11:25:59.415Z,2.63
2023-03-17T11:28:29.332Z,4.88
2023-03-17T11:30:59.673Z,2.83
2023-03-17T11:33:34.128Z,3.95
2023-03-17T11:36:04.659Z,6.88
2023-03-17T11:38:33.831Z,4.28
2023-03-17T11:41:19.383Z,6.78
2023-03-17T11:44:06.250Z,3.75
2023-03-17T11:46:36.968Z,4.40
2023-03-17T11:49:14.578Z,3.15
2023-03-17T11:51:42.246Z,4.32
2023-03-17T11:54:12.526Z,6.97
2023-03-17T11:56:42.844Z,3.55
2023-03-17T11:59:33.316Z,1.70
2023-03-17T12:02:12.815Z,3.28
2023-03-17T12:04:49.154Z,1.55
2023-03-17T12:07:27.632Z,5.45
2023-03-17T12:09:55.372Z,2.72
2023-03-17T12:12:27.037Z,1.88
2023-03-17T12:14:54.790Z,9.65
2023-03-17T12:17:49.699Z,4.78
2023-03-17T12:20:19.300Z,1.80
2023-03-17T12:22:52.798Z,1.83
2023-03-17T12:25:25.665Z,4.60
2023-03-17T12:28:11.276Z,1.63
2023-03-17T12:30:48.489Z,4.40
2023-03-17T12:33:21.403Z,3.47
2023-03-17T12:35:48.909Z,3.58
2023-03-17T12:38:21.757Z,7.35
2023-03-17T12:41:07.884Z,4.47
2023-03-17T12:43:53.433Z,4.15
2023-03-17T12:46:23.647Z,3.13
2023-03-17T12:48:53.733Z,5.40
2023-03-17T12:51:33.391Z,4.53
2023-03-17T12:54:00.939Z,5.30
2023-03-17T12:56:29.538Z,5.88
2023-03-17T12:59:04.468Z,4.43
2023-03-17T13:01:33.441Z,8.63
2023-03-17T13:04:06.664Z,5.20
2023-03-17T13:06:45.674Z,6.35
2023-03-17T13:09:30.299Z,5.97
2023-03-17T13:11:59.427Z,5.25
2023-03-17T13:14:46.968Z,6.00
2023-03-17T13:17:17.532Z,8.02
2023-03-17T13:19:55.828Z,5.15
2023-03-17T13:22:23.005Z,5.97
2023-03-17T13:24:53.889Z,5.35
2023-03-17T13:27:32.951Z,8.30
2023-03-17T13:30:01.670Z,4.45
2023-03-17T13:32:29.471Z,5.45
2023-03-17T13:35:03.002Z,6.25
2023-03-17T13:37:32.131Z,5.80
2023-03-17T13:40:10.954Z,3.97
2023-03-17T13:42:38.291Z,5.50
2023-03-17T13:45:14.615Z,5.45
2023-03-17T13:47:42.969Z,8.32
2023-03-17T13:50:15.928Z,5.30
2023-03-17T13:52:50.398Z,4.68
2023-03-17T13:55:20.763Z,5.40
2023-03-17T13:57:58.810Z,5.63
2023-03-17T14:00:29.842Z,5.43
2023-03-17T14:03:01.435Z,4.50
2023-03-17T14:05:32.085Z,6.13
2023-03-17T14:08:01.728Z,5.15
2023-03-17T14:10:30.328Z,6.97
2023-03-17T14:13:00.980Z,5.68
2023-03-17T14:15:32.256Z,4.25
2023-03-17T14:18:11.191Z,3.95
2023-03-17T14:20:38.452Z,7.05
2023-03-17T14:23:06.289Z,5.00
2023-03-17T14:25:34.669Z,3.70
2023-03-17T14:28:05.532Z,7.15
2023-03-17T14:30:34.168Z,4.05
2023-03-17T14:33:01.525Z,4.22
2023-03-17T14:35:32.980Z,5.68
2023-03-17T14:38:01.286Z,4.20
2023-03-17T14:40:31.450Z,3.80
2023-03-17T14:42:58.805Z,5.35
2023-03-17T14:45:45.019Z,6.93
2023-03-17T14:48:14.618Z,4.10
2023-03-17T14:50:50.368Z,6.25
2023-03-17T14:53:18.233Z,8.15
2023-03-17T14:55:45.490Z,6.07
2023-03-17T14:58:25.277Z,5.72
2023-03-17T15:01:18.908Z,4.82
2023-03-17T15:06:21.421Z,6.10
2023-03-17T15:08:49.175Z,5.10
2023-03-17T15:11:37.725Z,5.50
2023-03-17T15:14:07.233Z,3.55
2023-03-17T15:16:36.263Z,4.20
2023-03-17T15:19:08.367Z,4.32
2023-03-17T15:21:40.373Z,7.65
2023-03-17T15:24:22.997Z,5.85
2023-03-17T15:26:50.200Z,3.70
2023-03-17T15:29:18.530Z,4.53
2023-03-17T15:31:45.717Z,6.32
2023-03-17T15:34:15.382Z,8.77
2023-03-17T15:36:44.158Z,6.90
2023-03-17T15:39:11.376Z,5.35
2023-03-17T15:41:38.542Z,6.18
2023-03-17T15:44:06.023Z,5.35
2023-03-17T15:46:33.817Z,3.83
2023-03-17T15:49:01.275Z,4.38
2023-03-17T15:51:28.450Z,6.20
2023-03-17T15:53:55.743Z,8.25
2023-03-17T15:56:22.960Z,5.97
2023-03-17T15:59:01.851Z,5.40
2023-03-17T16:01:30.022Z,5.57
2023-03-17T16:03:57.240Z,4.00
2023-03-17T16:06:24.788Z,3.97
2023-03-17T16:08:52.318Z,4.32
2023-03-17T16:11:31.471Z,5.00
2023-03-17T16:13:59.890Z,6.32
2023-03-17T16:16:30.284Z,5.80
2023-03-17T16:18:58.374Z,6.35
2023-03-17T16:21:25.746Z,3.42
2023-03-17T16:23:53.163Z,9.68
2023-03-17T16:26:20.330Z,6.38
2023-03-17T16:28:50.711Z,5.93
2023-03-17T16:31:19.369Z,4.40
2023-03-17T16:33:47.056Z,8.00
2023-03-17T16:36:15.509Z,4.53
2023-03-17T16:38:42.858Z,5.65
2023-03-17T16:41:15.673Z,7.88
2023-03-17T16:43:44.021Z,4.68
2023-03-17T16:46:12.101Z,4.65
2023-03-17T16:48:39.697Z,3.50
2023-03-17T16:51:06.866Z,6.13
2023-03-17T16:53:34.055Z,5.00
2023-03-17T16:56:01.197Z,3.75
2023-03-17T16:58:31.267Z,6.43
2023-03-17T17:01:01.315Z,4.22
2023-03-17T17:03:29.027Z,6.95
2023-03-17T17:05:56.573Z,5.47
2023-03-17T17:08:23.858Z,5.85
2023-03-17T17:10:51.721Z,6.75
2023-03-17T17:13:18.981Z,6.97
2023-03-17T17:15:46.481Z,3.70
2023-03-17T17:18:18.069Z,6.90
2023-03-17T17:20:45.972Z,5.68
2023-03-17T17:23:18.063Z,4.50
2023-03-17T17:25:45.383Z,9.05
2023-03-17T17:28:13.518Z,7.30
2023-03-17T17:30:45.013Z,8.20
2023-03-17T17:33:14.093Z,11.93
2023-03-17T17:35:41.894Z,12.02
2023-03-17T17:38:16.642Z,5.82
2023-03-17T17:40:43.916Z,10.65
2023-03-17T17:43:11.114Z,7.53
2023-03-17T17:45:38.451Z,5.40
2023-03-17T17:48:05.594Z,8.30
2023-03-17T17:50:33.635Z,7.50
2023-03-17T17:53:05.424Z,6.57
2023-03-17T17:55:35.532Z,9.25
2023-03-17T17:58:02.724Z,9.82
2023-03-17T18:00:30.697Z,9.10
2023-03-17T18:02:58.024Z,6.57
2023-03-17T18:05:25.193Z,8.10
2023-03-17T18:07:52.397Z,9.43
2023-03-17T18:10:24.068Z,7.07
2023-03-17T18:12:51.334Z,8.27
2023-03-17T18:15:18.823Z,6.20
2023-03-17T18:17:45.954Z,6.53
2023-03-17T18:20:14.655Z,7.80
2023-03-17T18:22:41.976Z,11.55
2023-03-17T18:25:09.941Z,7.75
2023-03-17T18:27:37.916Z,6.60
2023-03-17T18:30:07.265Z,6.82
2023-03-17T18:32:34.487Z,7.35
2023-03-17T18:35:04.094Z,7.70
2023-03-17T18:37:32.979Z,5.65
2023-03-17T18:40:13.234Z,7.25
2023-03-17T18:42:41.766Z,6.15
2023-03-17T18:45:09.917Z,9.50
2023-03-17T18:47:38.880Z,7.78
2023-03-17T18:50:08.177Z,9.18
2023-03-17T18:52:36.549Z,10.38
2023-03-17T18:55:04.233Z,9.05
2023-03-17T18:57:31.616Z,7.40
2023-03-17T18:59:58.759Z,6.15
2023-03-17T19:02:26.072Z,8.18
2023-03-17T19:04:53.238Z,7.80
2023-03-17T19:07:22.261Z,7.25
2023-03-17T19:09:49.548Z,10.80
2023-03-17T19:12:16.754Z,9.45
2023-03-17T19:14:43.984Z,6.95
2023-03-17T19:17:11.375Z,8.30
2023-03-17T19:19:38.683Z,8.75
2023-03-17T19:22:06.148Z,7.18
2023-03-17T19:24:37.579Z,8.93
2023-03-17T19:27:05.299Z,9.00
2023-03-17T19:29:33.406Z,6.93
2023-03-17T19:32:00.683Z,11.07
2023-03-17T19:34:27.911Z,10.07
2023-03-17T19:36:55.633Z,7.70
2023-03-17T19:39:23.006Z,11.13
2023-03-17T19:41:53.226Z,8.70
2023-03-17T19:44:21.294Z,9.80
2023-03-17T19:46:48.638Z,9.55
2023-03-17T19:49:16.512Z,9.07
2023-03-17T19:51:43.696Z,7.85
2023-03-17T19:54:11.735Z,8.30
2023-03-17T19:56:39.262Z,7.70
2023-03-17T19:59:07.410Z,10.70
2023-03-17T20:01:34.711Z,5.50
2023-03-17T20:04:02.002Z,8.95
2023-03-17T20:06:31.304Z,9.82
2023-03-17T20:08:58.616Z,12.05
2023-03-17T20:11:25.811Z,8.95
2023-03-17T20:13:52.948Z,12.02
2023-03-17T20:16:20.208Z,11.98
2023-03-17T20:18:47.410Z,12.00
2023-03-17T20:21:14.865Z,9.80
2023-03-17T20:23:42.096Z,13.75
2023-03-17T20:26:09.251Z,10.45
2023-03-17T20:28:36.904Z,11.20
2023-03-17T20:31:04.668Z,11.73
2023-03-17T20:33:33.474Z,11.70
2023-03-17T20:36:02.088Z,9.05
2023-03-17T20:38:30.967Z,10.50
2023-03-17T20:41:11.784Z,14.32
2023-03-17T20:43:39.234Z,10.30
2023-03-17T20:46:08.610Z,9.25
2023-03-17T20:48:37.097Z,11.15
2023-03-17T20:51:06.232Z,11.88
2023-03-17T20:53:34.338Z,9.50
2023-03-17T20:56:01.524Z,8.90
2023-03-17T20:58:28.993Z,8.60
2023-03-17T21:00:58.248Z,12.35
2023-03-17T21:03:25.771Z,9.70
2023-03-17T21:05:53.495Z,10.25
2023-03-17T21:08:21.087Z,10.80
2023-03-17T21:10:48.248Z,12.27
2023-03-17T21:13:17.773Z,10.15
2023-03-17T21:15:45.364Z,12.93
2023-03-17T21:18:13.532Z,12.35
2023-03-17T21:20:42.546Z,11.80
2023-03-17T21:23:10.644Z,12.80
2023-03-17T21:25:37.971Z,15.00
2023-03-17T21:28:05.488Z,14.55
2023-03-17T21:30:34.148Z,17.15
2023-03-17T21:33:01.794Z,19.67
2023-03-17T21:35:30.860Z,15.48
2023-03-17T21:37:58.209Z,20.92
2023-03-17T21:40:26.182Z,20.67
2023-03-17T21:42:54.214Z,26.50
2023-03-17T21:45:22.005Z,23.85
2023-03-17T21:47:49.385Z,19.73
2023-03-17T21:50:17.735Z,20.40
2023-03-17T21:52:45.502Z,21.55
2023-03-17T21:55:13.503Z,21.70
2023-03-17T21:57:40.727Z,19.27
2023-03-17T22:00:09.653Z,20.75
2023-03-17T22:02:37.104Z,18.98
2023-03-17T22:05:05.221Z,27.35
2023-03-17T22:07:32.936Z,21.38
2023-03-17T22:10:00.952Z,20.17
2023-03-17T22:12:28.711Z,23.27
2023-03-17T22:14:58.818Z,19.38
2023-03-17T22:17:26.007Z,25.15
2023-03-17T22:19:53.368Z,24.20
2023-03-17T22:22:21.169Z,17.27
2023-03-17T22:24:48.894Z,20.85
2023-03-17T22:27:16.866Z,20.08
2023-03-17T22:29:44.388Z,19.23
2023-03-17T22:32:11.828Z,18.40
2023-03-17T22:34:39.032Z,25.50
2023-03-17T22:37:07.160Z,19.30
2023-03-17T22:39:34.665Z,20.30
2023-03-17T22:42:02.174Z,19.65
2023-03-17T22:44:29.395Z,27.88
2023-03-17T22:46:56.974Z,21.08
2023-03-17T22:49:24.181Z,17.05
2023-03-17T22:51:51.967Z,16.27
2023-03-17T22:54:19.191Z,23.58
2023-03-17T22:56:46.442Z,15.25
2023-03-17T22:59:13.604Z,20.67
2023-03-17T23:01:40.904Z,18.30
2023-03-17T23:04:09.149Z,19.27
2023-03-17T23:06:36.732Z,16.20
2023-03-17T23:09:04.801Z,19.48
2023-03-17T23:11:32.025Z,15.75
2023-03-17T23:13:59.206Z,15.57
2023-03-17T23:16:27.170Z,13.32
2023-03-17T23:18:54.445Z,12.32
2023-03-17T23:21:29.249Z,12.15
2023-03-17T23:23:56.482Z,18.20
2023-03-17T23:26:24.003Z,15.02
2023-03-17T23:28:51.155Z,11.85
2023-03-17T23:31:19.491Z,12.20
2023-03-17T23:33:47.892Z,12.60
2023-03-17T23:36:15.957Z,11.40
2023-03-17T23:38:44.155Z,10.75
2023-03-17T23:41:12.796Z,10.05
2023-03-17T23:43:40.645Z,11.32
2023-03-17T23:46:08.427Z,12.45
2023-03-17T23:48:35.634Z,12.10
2023-03-17T23:51:03.449Z,10.52
2023-03-17T23:53:31.383Z,9.52
2023-03-17T23:55:58.913Z,10.65
2023-03-17T23:58:26.987Z,8.70
